Toronto, Canada
Current Conditions -  °F | °C
As of 11:00 AM on Friday 24 Oct 2014 (Local Time) from CYYZ Reporting Station
Scattered Clouds Scattered Clouds  
Wind Chill: 44°   Ceiling: Unl
Heat Index: 48°   Visibility: 15mi
Dew Point: 41°   Wind: 10mph
Humidity: 76%   Direction: 310°NW
Pressure: 30.04"   Gusts: NA
Location:  43.65°N, 79.39°W
Report Text: CYYZ 241500Z 31009KT 15SM FEW150 SCT250 09/05 A3004 RMK AC1CI4 AC TR SLP177
Loading
Personal Weather Stations






























Interactive Weather Map
Tropical Storm Tracking
New forecast layout! Learn more

10-Day Weather Forecast

Advertisements
Track Severe Weather on mobile